createdAt,value
2022-10-11T03:03:41.394Z,16.01
2022-10-11T03:06:09.402Z,16.01
2022-10-11T03:08:36.572Z,15.98
2022-10-11T03:11:03.847Z,15.99
2022-10-11T03:13:31.109Z,15.97
2022-10-11T03:16:03.335Z,15.98
2022-10-11T03:18:31.585Z,16.00
2022-10-11T03:20:58.760Z,15.99
2022-10-11T03:23:26.061Z,16.10
2022-10-11T03:25:53.461Z,16.07
2022-10-11T03:28:21.020Z,16.01
2022-10-11T03:30:49.096Z,15.99
2022-10-11T03:33:17.417Z,16.03
2022-10-11T03:35:46.314Z,15.97
2022-10-11T03:38:15.127Z,15.80
2022-10-11T03:40:44.781Z,15.97
2022-10-11T03:43:12.256Z,15.95
2022-10-11T03:45:42.458Z,15.95
2022-10-11T03:48:10.073Z,15.93
2022-10-11T03:50:37.701Z,15.88
2022-10-11T03:53:06.211Z,15.96
2022-10-11T03:55:33.493Z,16.02
2022-10-11T03:58:07.205Z,16.01
2022-10-11T04:00:35.746Z,15.74
2022-10-11T04:03:05.397Z,16.03
2022-10-11T04:05:32.592Z,16.00
2022-10-11T04:08:06.269Z,15.92
2022-10-11T04:10:35.981Z,15.98
2022-10-11T04:13:03.091Z,15.88
2022-10-11T04:15:30.248Z,15.98
2022-10-11T04:17:57.385Z,15.97
2022-10-11T04:20:24.687Z,15.83
2022-10-11T04:22:51.918Z,15.98
2022-10-11T04:25:19.225Z,15.90
2022-10-11T04:27:46.971Z,15.96
2022-10-11T04:30:14.551Z,15.97
2022-10-11T04:32:41.870Z,15.95
2022-10-11T04:35:09.841Z,15.96
2022-10-11T04:37:37.444Z,15.98
2022-10-11T04:40:07.200Z,15.98
2022-10-11T04:42:34.827Z,15.88
2022-10-11T04:45:02.330Z,15.92
2022-10-11T04:47:29.453Z,15.95
2022-10-11T04:49:56.663Z,15.97
2022-10-11T04:52:30.850Z,15.82
2022-10-11T04:55:05.738Z,15.96
2022-10-11T04:57:55.066Z,15.95
2022-10-11T05:00:22.860Z,15.95
2022-10-11T05:02:50.151Z,15.97
2022-10-11T05:05:17.860Z,15.98
2022-10-11T05:07:45.073Z,15.97
2022-10-11T05:10:12.205Z,15.99
2022-10-11T05:12:40.529Z,16.07
2022-10-11T05:15:08.634Z,16.02
2022-10-11T05:17:35.924Z,16.03
2022-10-11T05:20:03.061Z,16.01
2022-10-11T05:22:30.202Z,16.02
2022-10-11T05:24:57.524Z,15.97
2022-10-11T05:27:24.612Z,15.96
2022-10-11T05:29:51.703Z,16.02
2022-10-11T05:32:18.761Z,16.02
2022-10-11T05:34:45.876Z,16.01
2022-10-11T05:37:12.980Z,16.04
2022-10-11T05:39:40.086Z,16.01
2022-10-11T05:42:09.881Z,15.99
2022-10-11T05:44:37.283Z,16.06
2022-10-11T05:47:05.079Z,16.25
2022-10-11T05:49:35.208Z,16.32
2022-10-11T05:52:02.358Z,16.24
2022-10-11T05:54:31.562Z,16.22
2022-10-11T05:56:58.691Z,16.22
2022-10-11T05:59:25.832Z,16.30
2022-10-11T06:01:53.071Z,16.24
2022-10-11T06:04:20.269Z,16.23
2022-10-11T06:06:47.648Z,16.22
2022-10-11T06:09:14.793Z,16.17
2022-10-11T06:11:42.998Z,16.19
2022-10-11T06:14:10.237Z,16.15
2022-10-11T06:16:37.966Z,16.18
2022-10-11T06:19:05.503Z,16.39
2022-10-11T06:21:33.053Z,16.25
2022-10-11T06:24:02.959Z,16.20
2022-10-11T06:26:31.253Z,16.23
2022-10-11T06:28:59.174Z,16.20
2022-10-11T06:31:26.452Z,16.12
2022-10-11T06:33:53.522Z,16.22
2022-10-11T06:36:20.881Z,16.08
2022-10-11T06:38:47.993Z,16.32
2022-10-11T06:41:27.652Z,16.28
2022-10-11T06:43:56.060Z,16.42
2022-10-11T06:46:25.339Z,16.31
2022-10-11T06:48:54.119Z,16.32
2022-10-11T06:51:25.671Z,16.30
2022-10-11T06:53:56.071Z,16.34
2022-10-11T06:56:23.798Z,16.30
2022-10-11T06:58:53.789Z,16.24
2022-10-11T07:01:23.842Z,16.23
2022-10-11T07:03:53.433Z,16.29
2022-10-11T07:06:23.358Z,16.31
2022-10-11T07:08:50.708Z,16.28
2022-10-11T07:11:23.637Z,16.15
2022-10-11T07:13:53.807Z,16.28
2022-10-11T07:16:22.851Z,16.34
2022-10-11T07:18:59.538Z,16.42
2022-10-11T07:21:28.672Z,16.35
2022-10-11T07:23:55.713Z,16.40
2022-10-11T07:26:23.296Z,16.35
2022-10-11T07:28:50.398Z,16.34
2022-10-11T07:31:21.306Z,16.35
2022-10-11T07:33:48.390Z,16.43
2022-10-11T07:36:15.667Z,16.40
2022-10-11T07:38:44.447Z,16.42
2022-10-11T07:41:12.155Z,16.50
2022-10-11T07:43:39.282Z,16.52
2022-10-11T07:46:07.317Z,16.44
2022-10-11T07:48:36.395Z,16.51
2022-10-11T07:51:04.410Z,16.53
2022-10-11T07:53:31.599Z,16.59
2022-10-11T07:56:03.414Z,16.60
2022-10-11T07:58:31.411Z,16.61
2022-10-11T08:00:58.487Z,16.65
2022-10-11T08:03:25.836Z,16.62
2022-10-11T08:05:52.914Z,16.65
2022-10-11T08:08:20.355Z,16.71
2022-10-11T08:10:47.526Z,16.71
2022-10-11T08:13:14.703Z,16.69
2022-10-11T08:15:41.768Z,16.72
2022-10-11T08:18:08.970Z,16.74
2022-10-11T08:20:39.345Z,16.77
2022-10-11T08:23:07.655Z,16.79
2022-10-11T08:25:44.382Z,16.83
2022-10-11T08:28:17.925Z,16.82
2022-10-11T08:30:53.079Z,16.86
2022-10-11T08:33:21.999Z,16.81
2022-10-11T08:35:49.801Z,16.83
2022-10-11T08:38:17.449Z,16.89
2022-10-11T08:40:59.792Z,16.95
2022-10-11T08:43:39.607Z,16.89
2022-10-11T08:46:09.234Z,17.02
2022-10-11T08:48:41.947Z,17.07
2022-10-11T08:51:19.615Z,17.17
2022-10-11T08:53:56.451Z,17.01
2022-10-11T08:56:26.680Z,17.08
2022-10-11T08:59:13.850Z,17.08
2022-10-11T09:01:48.011Z,17.06
2022-10-11T09:04:17.452Z,17.05
2022-10-11T09:06:55.459Z,17.09
2022-10-11T09:09:47.688Z,17.09
2022-10-11T09:12:46.877Z,17.09
2022-10-11T09:15:21.003Z,17.08
2022-10-11T09:18:16.913Z,17.11
2022-10-11T09:20:49.446Z,17.04
2022-10-11T09:23:54.340Z,17.15
2022-10-11T09:26:25.747Z,17.15
2022-10-11T09:29:02.006Z,17.18
2022-10-11T09:31:30.023Z,17.16
2022-10-11T09:34:00.392Z,17.21
2022-10-11T09:36:27.473Z,17.21
2022-10-11T09:39:30.055Z,17.15
2022-10-11T09:42:08.938Z,17.24
2022-10-11T09:44:38.421Z,17.28
2022-10-11T09:47:06.812Z,17.34
2022-10-11T09:49:42.948Z,17.35
2022-10-11T09:52:19.077Z,17.38
2022-10-11T09:54:50.387Z,17.46
2022-10-11T09:57:24.546Z,17.53
2022-10-11T10:00:22.451Z,17.60
2022-10-11T10:03:01.338Z,17.62
2022-10-11T10:05:35.768Z,17.67
2022-10-11T10:08:23.550Z,17.76
2022-10-11T10:10:59.450Z,17.79
2022-10-11T10:13:45.002Z,17.91
2022-10-11T10:16:31.135Z,17.92
2022-10-11T10:19:07.797Z,17.96
2022-10-11T10:21:46.285Z,17.84
2022-10-11T10:24:28.834Z,17.88
2022-10-11T10:27:07.496Z,17.95
2022-10-11T10:29:36.287Z,17.88
2022-10-11T10:32:15.418Z,17.98
2022-10-11T10:35:00.809Z,18.04
2022-10-11T10:37:34.861Z,18.10
2022-10-11T10:40:31.282Z,18.12
2022-10-11T10:42:58.961Z,18.16
2022-10-11T10:45:52.524Z,18.15
2022-10-11T10:51:45.168Z,18.25
2022-10-11T10:54:37.300Z,18.46
2022-10-11T10:57:29.677Z,18.50
2022-10-11T11:00:06.106Z,18.60
2022-10-11T11:02:43.322Z,18.49
2022-10-11T11:05:41.258Z,18.50
2022-10-11T11:08:43.594Z,18.54
2022-10-11T11:11:28.900Z,18.65
2022-10-11T11:14:00.470Z,18.65
2022-10-11T11:16:56.049Z,18.72
2022-10-11T11:19:38.237Z,18.71
2022-10-11T11:22:36.011Z,18.86
2022-10-11T11:25:20.273Z,18.89
2022-10-11T11:28:05.513Z,18.94
2022-10-11T11:30:48.000Z,18.98
2022-10-11T11:33:32.085Z,18.98
2022-10-11T11:36:05.418Z,18.97
2022-10-11T11:38:45.715Z,18.97
2022-10-11T11:41:23.505Z,19.13
2022-10-11T11:43:57.814Z,19.13
2022-10-11T11:46:55.562Z,19.25
2022-10-11T11:49:36.047Z,19.34
2022-10-11T11:52:06.608Z,19.46
2022-10-11T11:54:54.298Z,19.35
2022-10-11T11:57:27.445Z,19.38
2022-10-11T12:00:07.368Z,19.59
2022-10-11T12:03:10.041Z,19.62
2022-10-11T12:05:37.587Z,19.61
2022-10-11T12:08:09.182Z,19.59
2022-10-11T12:10:53.913Z,19.65
2022-10-11T12:13:21.215Z,19.68
2022-10-11T12:16:06.895Z,19.64
2022-10-11T12:18:41.892Z,19.85
2022-10-11T12:21:27.067Z,19.82
2022-10-11T12:24:00.726Z,19.88
2022-10-11T12:26:28.271Z,19.94
2022-10-11T12:29:04.328Z,19.85
2022-10-11T12:31:42.436Z,19.78
2022-10-11T12:34:34.148Z,19.78
2022-10-11T12:37:20.382Z,19.74
2022-10-11T12:39:55.893Z,19.71
2022-10-11T12:42:31.895Z,19.77
2022-10-11T12:45:12.252Z,19.81
2022-10-11T12:48:13.924Z,19.82
2022-10-11T12:51:22.777Z,19.85
2022-10-11T12:54:27.122Z,19.85
2022-10-11T12:57:19.752Z,19.84
2022-10-11T12:59:47.258Z,19.89
2022-10-11T13:02:42.811Z,19.90
2022-10-11T13:05:26.840Z,19.76
2022-10-11T13:07:58.336Z,19.70
2022-10-11T13:10:33.206Z,19.71
2022-10-11T13:13:04.613Z,19.65
2022-10-11T13:15:32.187Z,19.50
2022-10-11T13:18:02.692Z,19.49
2022-10-11T13:20:36.295Z,19.45
2022-10-11T13:23:22.436Z,19.39
2022-10-11T13:25:49.982Z,19.32
2022-10-11T13:28:18.775Z,19.35
2022-10-11T13:30:50.872Z,19.27
2022-10-11T13:33:26.026Z,19.24
2022-10-11T13:35:59.845Z,19.34
2022-10-11T13:38:32.313Z,19.35
2022-10-11T13:41:09.243Z,19.42
2022-10-11T13:43:37.265Z,19.30
2022-10-11T13:46:05.629Z,19.36
2022-10-11T13:48:40.782Z,19.38
2022-10-11T13:51:36.190Z,19.47
2022-10-11T13:54:04.758Z,19.55
2022-10-11T13:56:42.680Z,19.52
2022-10-11T13:59:20.713Z,19.45
2022-10-11T14:01:51.485Z,19.38
2022-10-11T14:04:18.830Z,19.36
2022-10-11T14:06:56.350Z,19.33
2022-10-11T14:09:35.519Z,19.28
2022-10-11T14:12:27.212Z,19.31
2022-10-11T14:14:57.778Z,19.25
2022-10-11T14:17:43.436Z,19.17
2022-10-11T14:20:39.898Z,19.27
2022-10-11T14:23:07.634Z,19.27
2022-10-11T14:25:35.238Z,19.25
2022-10-11T14:28:03.760Z,19.22
2022-10-11T14:30:33.894Z,19.21
2022-10-11T14:33:02.826Z,19.21
2022-10-11T14:35:37.742Z,19.26
2022-10-11T14:38:05.074Z,19.28
2022-10-11T14:40:35.248Z,19.30
2022-10-11T14:43:02.748Z,19.30
2022-10-11T14:45:30.438Z,19.28
2022-10-11T14:47:57.600Z,19.33
2022-10-11T14:50:47.310Z,19.33
2022-10-11T14:53:14.964Z,19.26
2022-10-11T14:55:42.732Z,19.26
2022-10-11T14:58:12.283Z,19.28
2022-10-11T15:00:39.467Z,19.32
2022-10-11T15:03:09.244Z,19.25
2022-10-11T15:05:37.450Z,19.27
2022-10-11T15:08:07.279Z,19.24
2022-10-11T15:10:38.244Z,19.14
2022-10-11T15:13:07.351Z,19.17
2022-10-11T15:15:42.262Z,19.20
2022-10-11T15:18:14.763Z,19.18
2022-10-11T15:20:46.327Z,19.17
2022-10-11T15:23:14.054Z,19.18
2022-10-11T15:25:42.751Z,19.10
2022-10-11T15:28:29.571Z,19.07
2022-10-11T15:30:58.138Z,19.14
2022-10-11T15:33:26.873Z,19.14
2022-10-11T15:35:54.707Z,19.15
2022-10-11T15:38:24.834Z,19.10
2022-10-11T15:40:53.636Z,19.05
2022-10-11T15:43:24.670Z,19.11
2022-10-11T15:45:56.778Z,19.11
2022-10-11T15:48:26.579Z,19.06
2022-10-11T15:50:55.691Z,19.11
2022-10-11T15:53:35.559Z,19.09
2022-10-11T15:56:06.804Z,19.04
2022-10-11T15:58:40.444Z,19.05
2022-10-11T16:01:14.710Z,19.00
2022-10-11T16:03:44.517Z,18.84
2022-10-11T16:06:12.517Z,18.85
2022-10-11T16:08:40.253Z,18.92
2022-10-11T16:11:09.129Z,18.86
2022-10-11T16:13:36.968Z,18.79
2022-10-11T16:16:06.709Z,18.80
2022-10-11T16:18:35.932Z,18.78
2022-10-11T16:21:10.425Z,18.70
2022-10-11T16:23:38.822Z,18.69
2022-10-11T16:26:09.391Z,18.67
2022-10-11T16:28:37.984Z,18.66
2022-10-11T16:31:11.055Z,18.61
2022-10-11T16:33:48.145Z,18.47
2022-10-11T16:36:33.022Z,18.57
2022-10-11T16:39:02.492Z,18.55
2022-10-11T16:41:29.833Z,18.50
2022-10-11T16:43:59.782Z,18.37
2022-10-11T16:46:32.533Z,18.45
2022-10-11T16:49:01.282Z,18.39
2022-10-11T16:51:28.544Z,18.32
2022-10-11T16:53:55.692Z,18.32
2022-10-11T16:56:25.252Z,18.27
2022-10-11T16:58:54.355Z,18.19
2022-10-11T17:01:21.642Z,18.05
2022-10-11T17:03:50.059Z,18.11
2022-10-11T17:06:17.648Z,18.14
2022-10-11T17:08:45.072Z,17.99
2022-10-11T17:11:12.294Z,17.99
2022-10-11T17:13:39.385Z,17.97
2022-10-11T17:16:07.413Z,17.97
2022-10-11T17:18:34.895Z,17.82
2022-10-11T17:21:06.909Z,17.89
2022-10-11T17:23:35.425Z,17.86
2022-10-11T17:26:10.773Z,17.79
2022-10-11T17:28:38.959Z,17.73
2022-10-11T17:31:08.009Z,17.76
2022-10-11T17:33:35.596Z,17.69
2022-10-11T17:36:02.905Z,17.69
2022-10-11T17:38:31.336Z,17.61
2022-10-11T17:41:03.622Z,17.60
2022-10-11T17:43:32.293Z,17.48
2022-10-11T17:46:08.149Z,17.48
2022-10-11T17:48:39.343Z,17.48
2022-10-11T17:51:12.196Z,17.39
2022-10-11T17:53:40.008Z,17.34
2022-10-11T17:56:13.107Z,17.14
2022-10-11T17:58:40.311Z,17.26
2022-10-11T18:01:13.735Z,17.10
2022-10-11T18:03:42.373Z,17.16
2022-10-11T18:06:12.414Z,17.18
2022-10-11T18:08:40.953Z,17.13
2022-10-11T18:11:14.177Z,17.12
2022-10-11T18:13:45.889Z,17.10
2022-10-11T18:16:14.521Z,17.07
2022-10-11T18:18:42.548Z,17.07
2022-10-11T18:21:10.037Z,16.95
2022-10-11T18:23:39.147Z,17.01
2022-10-11T18:26:29.399Z,17.12
2022-10-11T18:29:07.655Z,17.06
2022-10-11T18:31:35.471Z,17.13
2022-10-11T18:34:04.648Z,17.06
2022-10-11T18:36:32.897Z,16.98
2022-10-11T18:39:03.142Z,16.98
2022-10-11T18:41:38.057Z,16.92
2022-10-11T18:44:08.763Z,16.92
2022-10-11T18:46:36.226Z,16.87
2022-10-11T18:49:04.121Z,16.90
2022-10-11T18:51:37.609Z,16.72
2022-10-11T18:54:06.428Z,16.87
2022-10-11T18:56:35.592Z,16.70
2022-10-11T18:59:03.470Z,16.72
2022-10-11T19:01:36.283Z,16.81
2022-10-11T19:04:05.168Z,16.78
2022-10-11T19:06:39.199Z,16.77
2022-10-11T19:09:10.668Z,16.76
2022-10-11T19:11:38.835Z,16.62
2022-10-11T19:14:07.361Z,16.72
2022-10-11T19:16:37.861Z,16.65
2022-10-11T19:19:05.538Z,16.66
2022-10-11T19:21:33.375Z,16.61
2022-10-11T19:24:00.525Z,16.60
2022-10-11T19:26:34.012Z,16.59
2022-10-11T19:29:06.765Z,16.60
2022-10-11T19:31:36.780Z,16.57
2022-10-11T19:34:03.955Z,16.50
2022-10-11T19:36:36.250Z,16.53
2022-10-11T19:39:05.373Z,16.52
2022-10-11T19:41:33.162Z,16.55
2022-10-11T19:44:01.100Z,16.48
2022-10-11T19:46:50.441Z,16.50
2022-10-11T19:49:20.518Z,16.54
2022-10-11T19:51:47.726Z,16.50
2022-10-11T19:54:16.213Z,16.48
2022-10-11T19:56:44.768Z,16.50
2022-10-11T19:59:12.592Z,16.50
2022-10-11T20:01:40.463Z,16.45
2022-10-11T20:04:18.791Z,16.41
2022-10-11T20:06:57.784Z,16.29
2022-10-11T20:09:30.660Z,16.39
2022-10-11T20:11:58.424Z,16.41
2022-10-11T20:14:25.908Z,16.46
2022-10-11T20:16:53.140Z,16.43
2022-10-11T20:19:26.232Z,16.38
2022-10-11T20:21:56.716Z,16.42
2022-10-11T20:24:23.918Z,16.39
2022-10-11T20:26:51.023Z,16.40
2022-10-11T20:29:18.363Z,16.36
2022-10-11T20:31:45.521Z,16.33
2022-10-11T20:34:13.493Z,16.30
2022-10-11T20:36:40.627Z,16.34
2022-10-11T20:39:08.346Z,16.32
2022-10-11T20:41:40.028Z,16.29
2022-10-11T20:44:09.111Z,16.34
2022-10-11T20:46:39.409Z,16.35
2022-10-11T20:49:09.339Z,16.34
2022-10-11T20:51:39.107Z,16.32
2022-10-11T20:54:06.580Z,16.20
2022-10-11T20:56:34.504Z,16.28
2022-10-11T20:59:02.273Z,16.34
2022-10-11T21:01:32.891Z,16.33
2022-10-11T21:04:02.074Z,16.32
2022-10-11T21:06:31.105Z,16.14
2022-10-11T21:08:59.450Z,16.37
2022-10-11T21:11:31.792Z,16.39
2022-10-11T21:14:01.275Z,16.35
2022-10-11T21:16:28.548Z,16.18
2022-10-11T21:18:58.152Z,16.33
2022-10-11T21:21:27.880Z,16.28
2022-10-11T21:23:56.573Z,16.32
2022-10-11T21:26:24.204Z,16.34
2022-10-11T21:28:52.115Z,16.34
2022-10-11T21:31:21.970Z,16.34
2022-10-11T21:33:51.587Z,16.32
2022-10-11T21:36:21.856Z,16.35
2022-10-11T21:38:51.074Z,16.35
2022-10-11T21:41:21.742Z,16.27
2022-10-11T21:43:49.390Z,16.41
2022-10-11T21:46:19.094Z,16.48
2022-10-11T21:48:47.169Z,16.35
2022-10-11T21:51:17.609Z,16.19
2022-10-11T21:53:44.741Z,16.38
2022-10-11T21:56:11.801Z,16.39
2022-10-11T21:58:38.987Z,16.35
2022-10-11T22:01:06.354Z,16.32
2022-10-11T22:03:33.529Z,16.22
2022-10-11T22:06:04.641Z,16.28
2022-10-11T22:08:32.361Z,16.18
2022-10-11T22:11:01.328Z,16.29
2022-10-11T22:13:30.740Z,16.28
2022-10-11T22:16:01.712Z,16.29
2022-10-11T22:18:33.311Z,16.29
2022-10-11T22:21:08.750Z,16.32
2022-10-11T22:23:39.384Z,16.23
2022-10-11T22:26:11.309Z,16.23
2022-10-11T22:28:43.086Z,16.23
2022-10-11T22:31:23.577Z,16.27
2022-10-11T22:33:55.584Z,16.25
2022-10-11T22:36:27.017Z,16.28
2022-10-11T22:38:55.169Z,16.29
2022-10-11T22:41:23.049Z,16.32
2022-10-11T22:43:50.942Z,16.28
2022-10-11T22:46:18.151Z,16.38
2022-10-11T22:48:45.192Z,16.24
2022-10-11T22:51:12.329Z,16.28
2022-10-11T22:53:39.536Z,16.27
2022-10-11T22:56:06.969Z,16.22
2022-10-11T22:58:34.050Z,16.28
